Air Navigation Services of Czech Republic  
Last data update:  23.09.2017 23:25:14 UTC Česká verze
   METEO Page displayed:  23.09.2017 23:26:11 UTC  
help
METAR EDDB 232320Z 30008KT 4600 DZ BR BKN004 13/12 Q1021 TEMPO NSW=
METAR EDDC 232320Z 27005KT 240V300 4500 -RA BR SCT005 BKN010 10/10 Q1021=
METAR EDDE 232320Z VRB01KT 9999 FEW026 BKN050 13/10 Q1022=
METAR EDDF 232320Z 03008KT CAVOK 13/11 Q1021 NOSIG=
METAR EDDM 232320Z VRB02KT 8000 R08L/0500VP2000N R08R/0450V0800D BCFG NSC 09/08 Q1021 NOSIG=
METAR EDDN 232320Z 00000KT CAVOK 10/09 Q1021=
METAR EDDP 232320Z 08002KT 9999 -RA NSC 12/11 Q1022 NOSIG=
METAR EDDT 232320Z 31005KT 270V360 4700 -RADZ FEW003 BKN004 13/12 Q1021=
METAR EDQM 231550Z 34005KT 280V030 9999 FEW032 BKN059 15/08 Q1022=
METAR EPBY 232300Z 08005KT CAVOK 13/12 Q1021 =
METAR EPGD 232300Z 10005KT 9999 FEW032 11/11 Q1023 =
METAR EPKK 232300Z 16002KT 3000 -DZ BR BKN003 11/11 Q1019 =
METAR EPKT 232300Z 09005KT 8000 BKN003 OVC005 12/12 Q1018 =
METAR EPLL 232300Z 08005KT CAVOK 13/11 Q1019 =
METAR EPPO 232300Z 07003KT 7000 FEW026 SCT035 14/13 Q1020 R10/290195 =
METAR EPRZ 232300Z 26003KT 230V290 5000 BR OVC013 12/12 Q1019 =
METAR EPWA 232300Z 08007KT 9999 FEW033 14/12 Q1021 NOSIG=
METAR EPWR 232300Z 26009KT 250V320 4000 -DZ BR OVC002 12/12 Q1019 =
METAR LHBP 232300Z VRB02KT 9999 OVC027 12/10 Q1019 NOSIG=
METAR LHSM 231945Z 02002KT 6000 BKN083 14/11 Q1021=
SPECI LKCV 232314Z 29005KT 9999 BKN012 BKN050 11/10 Q1020 =
METAR LKKB 232300Z 27004KT 9999 -RA NSC 10/10 Q1021 =
METAR LKKU NIL
METAR LKKV 232300Z 09001KT CAVOK 07/06 Q1021 RMK REG QNH 1016=
METAR LKLN 232300Z AUTO VRB01KT 9999 FEW069 BKN200 11/09 Q1021=
METAR LKMT 232300Z 20006KT 5000 BR OVC007 11/11 Q1019 NOSIG RMK REG QNH 1016=
METAR LKNA 232300Z 33009KT 9999 OVC043 10/09 Q1019=
METAR LKPD 232300Z 28005KT 6000 -RA BKN006 OVC009 11/10 Q1020 =
METAR LKPR 232300Z 30003KT 9999 -RA FEW006 10/09 Q1021 NOSIG RMK REG QNH 1016=
METAR LKTB 232300Z VRB02KT 9999 OVC034 12/11 Q1019 NOSIG RMK REG QNH 1016=
METAR LKVO NIL
METAR LOWI 232250Z AUTO 16007KT 9999 FEW022 BKN028 12/10 Q1021=
METAR LOWL 232250Z AUTO VRB02KT 9999 FEW042 BKN048 12/10 Q1020=
METAR LOWS 232250Z AUTO VRB02KT 9999 FEW002 SCT060 10/09 Q1021=
METAR LOWW 232250Z 32004KT CAVOK 12/10 Q1020 NOSIG=
METAR LZIB 232300Z 28007KT 9999 FEW007 SCT033 BKN070 12/10 Q1020=
METAR LZKZ 232300Z 15001KT 6000 -DZ OVC010 11/10 Q1019=
METAR LZPP 232300Z AUTO 01002KT 9999 OVC018/// 12/11 Q1019=
METAR LZSL 232300Z VRB01KT 9000 FEW008 SCT026 OVC058 10/09 Q1019=
METAR LZTT 232300Z 28005KT 9999 SCT006 OVC015 09/08 Q1019=
METAR LZZI 232300Z VRB02KT 2600 BR OVC007 10/10 Q1019=